sensor_id;sensor_type;location;lat;lon;timestamp;P1;durP1;ratioP1;P2;durP2;ratioP2
16352;SDS011;8286;51.274;9.542;2022-08-06T00:02:13;7.67;;;2.90;;
16352;SDS011;8286;51.274;9.542;2022-08-06T00:04:41;2.23;;;2.13;;
16352;SDS011;8286;51.274;9.542;2022-08-06T00:07:08;4.93;;;2.47;;
16352;SDS011;8286;51.274;9.542;2022-08-06T00:09:35;2.83;;;2.13;;
16352;SDS011;8286;51.274;9.542;2022-08-06T00:12:03;2.40;;;2.20;;
16352;SDS011;8286;51.274;9.542;2022-08-06T00:14:30;3.20;;;1.90;;
16352;SDS011;8286;51.274;9.542;2022-08-06T00:16:58;3.07;;;2.10;;
16352;SDS011;8286;51.274;9.542;2022-08-06T00:19:25;2.57;;;2.37;;
16352;SDS011;8286;51.274;9.542;2022-08-06T00:21:53;2.70;;;2.50;;
16352;SDS011;8286;51.274;9.542;2022-08-06T00:24:20;2.60;;;2.40;;
16352;SDS011;8286;51.274;9.542;2022-08-06T00:26:47;3.47;;;2.23;;
16352;SDS011;8286;51.274;9.542;2022-08-06T00:29:13;2.43;;;2.17;;
16352;SDS011;8286;51.274;9.542;2022-08-06T00:31:40;2.67;;;2.27;;
16352;SDS011;8286;51.274;9.542;2022-08-06T00:34:07;2.33;;;2.07;;
16352;SDS011;8286;51.274;9.542;2022-08-06T00:36:33;3.43;;;2.20;;
16352;SDS011;8286;51.274;9.542;2022-08-06T00:39:02;2.10;;;2.00;;
16352;SDS011;8286;51.274;9.542;2022-08-06T00:41:30;3.43;;;2.30;;
16352;SDS011;8286;51.274;9.542;2022-08-06T00:43:57;7.33;;;1.93;;
16352;SDS011;8286;51.274;9.542;2022-08-06T00:46:24;4.77;;;2.43;;
16352;SDS011;8286;51.274;9.542;2022-08-06T00:48:51;2.47;;;2.27;;
16352;SDS011;8286;51.274;9.542;2022-08-06T00:51:18;6.30;;;2.53;;
16352;SDS011;8286;51.274;9.542;2022-08-06T00:53:45;2.17;;;1.57;;
16352;SDS011;8286;51.274;9.542;2022-08-06T00:56:13;2.83;;;1.87;;
16352;SDS011;8286;51.274;9.542;2022-08-06T00:58:40;3.73;;;2.10;;
16352;SDS011;8286;51.274;9.542;2022-08-06T01:01:07;3.10;;;1.90;;
16352;SDS011;8286;51.274;9.542;2022-08-06T01:03:34;1.80;;;1.70;;
16352;SDS011;8286;51.274;9.542;2022-08-06T01:06:00;3.53;;;2.07;;
16352;SDS011;8286;51.274;9.542;2022-08-06T01:08:27;1.93;;;1.83;;
16352;SDS011;8286;51.274;9.542;2022-08-06T01:10:54;2.87;;;1.83;;
16352;SDS011;8286;51.274;9.542;2022-08-06T01:13:22;3.03;;;1.70;;
16352;SDS011;8286;51.274;9.542;2022-08-06T01:15:50;4.30;;;2.40;;
16352;SDS011;8286;51.274;9.542;2022-08-06T01:18:21;4.67;;;2.40;;
16352;SDS011;8286;51.274;9.542;2022-08-06T01:20:54;3.57;;;2.40;;
16352;SDS011;8286;51.274;9.542;2022-08-06T01:23:28;3.40;;;2.17;;
16352;SDS011;8286;51.274;9.542;2022-08-06T01:26:07;5.17;;;3.07;;
16352;SDS011;8286;51.274;9.542;2022-08-06T01:28:52;2.10;;;2.00;;
16352;SDS011;8286;51.274;9.542;2022-08-06T01:31:25;2.80;;;1.90;;
16352;SDS011;8286;51.274;9.542;2022-08-06T01:33:56;3.77;;;1.90;;
16352;SDS011;8286;51.274;9.542;2022-08-06T01:36:27;4.83;;;1.77;;
16352;SDS011;8286;51.274;9.542;2022-08-06T01:38:57;2.00;;;1.90;;
16352;SDS011;8286;51.274;9.542;2022-08-06T01:41:25;2.30;;;2.10;;
16352;SDS011;8286;51.274;9.542;2022-08-06T01:44:07;2.20;;;2.00;;
16352;SDS011;8286;51.274;9.542;2022-08-06T01:46:35;2.07;;;1.80;;
16352;SDS011;8286;51.274;9.542;2022-08-06T01:49:02;3.57;;;1.40;;
16352;SDS011;8286;51.274;9.542;2022-08-06T01:51:30;2.23;;;1.70;;
16352;SDS011;8286;51.274;9.542;2022-08-06T01:53:57;4.03;;;2.33;;
16352;SDS011;8286;51.274;9.542;2022-08-06T01:56:24;2.10;;;1.90;;
16352;SDS011;8286;51.274;9.542;2022-08-06T01:58:52;1.60;;;1.50;;
16352;SDS011;8286;51.274;9.542;2022-08-06T02:01:22;2.10;;;1.90;;
16352;SDS011;8286;51.274;9.542;2022-08-06T02:03:51;2.63;;;1.50;;
16352;SDS011;8286;51.274;9.542;2022-08-06T02:06:21;1.60;;;1.50;;
16352;SDS011;8286;51.274;9.542;2022-08-06T02:08:49;3.77;;;1.70;;
16352;SDS011;8286;51.274;9.542;2022-08-06T02:11:17;2.47;;;1.63;;
16352;SDS011;8286;51.274;9.542;2022-08-06T02:13:44;4.63;;;1.90;;
16352;SDS011;8286;51.274;9.542;2022-08-06T02:16:12;2.77;;;1.63;;
16352;SDS011;8286;51.274;9.542;2022-08-06T02:18:42;3.43;;;1.23;;
16352;SDS011;8286;51.274;9.542;2022-08-06T02:21:12;4.07;;;2.40;;
16352;SDS011;8286;51.274;9.542;2022-08-06T02:23:41;1.43;;;1.33;;
16352;SDS011;8286;51.274;9.542;2022-08-06T02:26:09;3.70;;;1.70;;
16352;SDS011;8286;51.274;9.542;2022-08-06T02:28:37;1.90;;;1.80;;
16352;SDS011;8286;51.274;9.542;2022-08-06T02:31:05;2.67;;;1.70;;
16352;SDS011;8286;51.274;9.542;2022-08-06T02:33:31;1.67;;;1.53;;
16352;SDS011;8286;51.274;9.542;2022-08-06T02:36:01;3.20;;;1.77;;
16352;SDS011;8286;51.274;9.542;2022-08-06T02:38:31;3.57;;;1.40;;
16352;SDS011;8286;51.274;9.542;2022-08-06T02:41:01;3.70;;;1.80;;
16352;SDS011;8286;51.274;9.542;2022-08-06T02:43:32;2.80;;;1.70;;
16352;SDS011;8286;51.274;9.542;2022-08-06T02:46:03;1.60;;;1.50;;
16352;SDS011;8286;51.274;9.542;2022-08-06T02:48:38;1.90;;;1.73;;
16352;SDS011;8286;51.274;9.542;2022-08-06T02:51:09;1.90;;;1.77;;
16352;SDS011;8286;51.274;9.542;2022-08-06T02:53:42;2.27;;;1.40;;
16352;SDS011;8286;51.274;9.542;2022-08-06T02:56:11;5.53;;;1.50;;
16352;SDS011;8286;51.274;9.542;2022-08-06T02:58:38;1.77;;;1.67;;
16352;SDS011;8286;51.274;9.542;2022-08-06T03:01:08;2.40;;;1.90;;
16352;SDS011;8286;51.274;9.542;2022-08-06T03:03:36;4.77;;;1.87;;
16352;SDS011;8286;51.274;9.542;2022-08-06T03:06:04;2.30;;;1.57;;
16352;SDS011;8286;51.274;9.542;2022-08-06T03:08:33;2.00;;;1.90;;
16352;SDS011;8286;51.274;9.542;2022-08-06T03:11:00;3.57;;;2.07;;
16352;SDS011;8286;51.274;9.542;2022-08-06T03:13:28;2.53;;;1.93;;
16352;SDS011;8286;51.274;9.542;2022-08-06T03:15:55;1.80;;;1.70;;
16352;SDS011;8286;51.274;9.542;2022-08-06T03:18:24;3.20;;;1.60;;
16352;SDS011;8286;51.274;9.542;2022-08-06T03:20:51;2.13;;;1.80;;
16352;SDS011;8286;51.274;9.542;2022-08-06T03:23:18;1.80;;;1.70;;
16352;SDS011;8286;51.274;9.542;2022-08-06T03:25:47;2.03;;;1.73;;
16352;SDS011;8286;51.274;9.542;2022-08-06T03:28:14;3.73;;;1.70;;
16352;SDS011;8286;51.274;9.542;2022-08-06T03:30:42;3.17;;;2.10;;
16352;SDS011;8286;51.274;9.542;2022-08-06T03:33:10;2.37;;;1.73;;
16352;SDS011;8286;51.274;9.542;2022-08-06T03:35:40;4.93;;;2.10;;
16352;SDS011;8286;51.274;9.542;2022-08-06T03:38:08;3.53;;;1.83;;
16352;SDS011;8286;51.274;9.542;2022-08-06T03:40:35;2.73;;;2.17;;
16352;SDS011;8286;51.274;9.542;2022-08-06T03:43:04;2.20;;;2.00;;
16352;SDS011;8286;51.274;9.542;2022-08-06T03:45:31;3.30;;;2.07;;
16352;SDS011;8286;51.274;9.542;2022-08-06T03:48:02;3.43;;;1.77;;
16352;SDS011;8286;51.274;9.542;2022-08-06T03:50:31;2.60;;;1.73;;
16352;SDS011;8286;51.274;9.542;2022-08-06T03:53:02;5.97;;;2.27;;
16352;SDS011;8286;51.274;9.542;2022-08-06T03:55:31;3.17;;;2.00;;
16352;SDS011;8286;51.274;9.542;2022-08-06T03:58:00;1.93;;;1.83;;
16352;SDS011;8286;51.274;9.542;2022-08-06T04:00:32;1.70;;;1.60;;
16352;SDS011;8286;51.274;9.542;2022-08-06T04:03:00;3.40;;;1.83;;
16352;SDS011;8286;51.274;9.542;2022-08-06T04:05:28;3.97;;;2.03;;
16352;SDS011;8286;51.274;9.542;2022-08-06T04:07:56;2.27;;;1.90;;
16352;SDS011;8286;51.274;9.542;2022-08-06T04:10:24;2.60;;;1.97;;
16352;SDS011;8286;51.274;9.542;2022-08-06T04:12:54;3.07;;;1.83;;
16352;SDS011;8286;51.274;9.542;2022-08-06T04:15:21;3.97;;;1.93;;
16352;SDS011;8286;51.274;9.542;2022-08-06T04:17:49;5.80;;;2.50;;
16352;SDS011;8286;51.274;9.542;2022-08-06T04:20:16;5.33;;;1.90;;
16352;SDS011;8286;51.274;9.542;2022-08-06T04:22:46;13.13;;;2.07;;
16352;SDS011;8286;51.274;9.542;2022-08-06T04:25:13;2.27;;;2.00;;
16352;SDS011;8286;51.274;9.542;2022-08-06T04:27:40;6.87;;;3.20;;
16352;SDS011;8286;51.274;9.542;2022-08-06T04:30:08;7.03;;;2.30;;
16352;SDS011;8286;51.274;9.542;2022-08-06T04:32:38;4.37;;;2.17;;
16352;SDS011;8286;51.274;9.542;2022-08-06T04:35:07;2.43;;;2.20;;
16352;SDS011;8286;51.274;9.542;2022-08-06T04:37:34;4.13;;;2.30;;
16352;SDS011;8286;51.274;9.542;2022-08-06T04:40:01;3.73;;;2.03;;
16352;SDS011;8286;51.274;9.542;2022-08-06T04:42:29;2.93;;;1.63;;
16352;SDS011;8286;51.274;9.542;2022-08-06T04:44:55;4.00;;;2.03;;
16352;SDS011;8286;51.274;9.542;2022-08-06T04:47:22;3.03;;;1.73;;
16352;SDS011;8286;51.274;9.542;2022-08-06T04:49:49;3.07;;;1.90;;
16352;SDS011;8286;51.274;9.542;2022-08-06T04:52:23;1.77;;;1.67;;
16352;SDS011;8286;51.274;9.542;2022-08-06T04:54:50;3.77;;;2.03;;
16352;SDS011;8286;51.274;9.542;2022-08-06T04:57:17;6.13;;;2.40;;
16352;SDS011;8286;51.274;9.542;2022-08-06T04:59:44;3.57;;;2.20;;
16352;SDS011;8286;51.274;9.542;2022-08-06T05:02:11;5.53;;;2.20;;
16352;SDS011;8286;51.274;9.542;2022-08-06T05:04:38;6.93;;;1.60;;
16352;SDS011;8286;51.274;9.542;2022-08-06T05:07:06;2.53;;;1.60;;
16352;SDS011;8286;51.274;9.542;2022-08-06T05:09:38;8.20;;;1.40;;
16352;SDS011;8286;51.274;9.542;2022-08-06T05:12:08;2.95;;;1.30;;
16352;SDS011;8286;51.274;9.542;2022-08-06T05:14:40;1.95;;;1.20;;
16352;SDS011;8286;51.274;9.542;2022-08-06T05:17:10;1.30;;;1.20;;
16352;SDS011;8286;51.274;9.542;2022-08-06T05:19:41;1.33;;;1.23;;
16352;SDS011;8286;51.274;9.542;2022-08-06T05:22:10;1.75;;;1.58;;
16352;SDS011;8286;51.274;9.542;2022-08-06T05:24:38;2.03;;;0.98;;
16352;SDS011;8286;51.274;9.542;2022-08-06T05:27:06;2.70;;;1.38;;
16352;SDS011;8286;51.274;9.542;2022-08-06T05:29:33;1.27;;;1.05;;
16352;SDS011;8286;51.274;9.542;2022-08-06T05:31:59;1.40;;;1.30;;
16352;SDS011;8286;51.274;9.542;2022-08-06T05:34:27;4.82;;;1.30;;
16352;SDS011;8286;51.274;9.542;2022-08-06T05:36:54;1.05;;;1.02;;
16352;SDS011;8286;51.274;9.542;2022-08-06T05:39:21;3.45;;;1.20;;
16352;SDS011;8286;51.274;9.542;2022-08-06T05:41:49;3.75;;;1.15;;
16352;SDS011;8286;51.274;9.542;2022-08-06T05:44:16;1.15;;;1.13;;
16352;SDS011;8286;51.274;9.542;2022-08-06T05:46:45;1.38;;;1.25;;
16352;SDS011;8286;51.274;9.542;2022-08-06T05:49:17;2.17;;;1.23;;
16352;SDS011;8286;51.274;9.542;2022-08-06T05:51:49;7.20;;;1.38;;
16352;SDS011;8286;51.274;9.542;2022-08-06T05:54:21;1.90;;;1.00;;
16352;SDS011;8286;51.274;9.542;2022-08-06T05:56:51;1.65;;;1.05;;
16352;SDS011;8286;51.274;9.542;2022-08-06T05:59:31;3.67;;;1.30;;
16352;SDS011;8286;51.274;9.542;2022-08-06T06:02:01;3.10;;;1.27;;
16352;SDS011;8286;51.274;9.542;2022-08-06T06:04:28;2.53;;;1.15;;
16352;SDS011;8286;51.274;9.542;2022-08-06T06:06:56;1.10;;;1.10;;
16352;SDS011;8286;51.274;9.542;2022-08-06T06:09:22;1.85;;;1.10;;
16352;SDS011;8286;51.274;9.542;2022-08-06T06:11:49;3.83;;;1.20;;
16352;SDS011;8286;51.274;9.542;2022-08-06T06:14:29;3.70;;;1.30;;
16352;SDS011;8286;51.274;9.542;2022-08-06T06:17:03;1.25;;;1.20;;
16352;SDS011;8286;51.274;9.542;2022-08-06T06:19:38;1.25;;;1.25;;
16352;SDS011;8286;51.274;9.542;2022-08-06T06:22:10;3.80;;;1.42;;
16352;SDS011;8286;51.274;9.542;2022-08-06T06:24:45;3.35;;;1.30;;
16352;SDS011;8286;51.274;9.542;2022-08-06T06:27:17;1.40;;;1.05;;
16352;SDS011;8286;51.274;9.542;2022-08-06T06:29:47;3.20;;;1.15;;
16352;SDS011;8286;51.274;9.542;2022-08-06T06:32:23;2.50;;;1.20;;
16352;SDS011;8286;51.274;9.542;2022-08-06T06:34:59;1.90;;;1.13;;
16352;SDS011;8286;51.274;9.542;2022-08-06T06:37:31;1.25;;;1.15;;
16352;SDS011;8286;51.274;9.542;2022-08-06T06:40:05;1.40;;;1.27;;
16352;SDS011;8286;51.274;9.542;2022-08-06T06:42:40;2.58;;;1.42;;
16352;SDS011;8286;51.274;9.542;2022-08-06T06:45:11;1.08;;;1.00;;
16352;SDS011;8286;51.274;9.542;2022-08-06T06:47:42;1.15;;;0.90;;
16352;SDS011;8286;51.274;9.542;2022-08-06T06:50:13;2.38;;;1.30;;
16352;SDS011;8286;51.274;9.542;2022-08-06T06:52:43;1.13;;;1.00;;
16352;SDS011;8286;51.274;9.542;2022-08-06T06:55:12;1.70;;;1.10;;
16352;SDS011;8286;51.274;9.542;2022-08-06T06:57:42;1.50;;;1.40;;
16352;SDS011;8286;51.274;9.542;2022-08-06T07:00:11;0.88;;;0.88;;
16352;SDS011;8286;51.274;9.542;2022-08-06T07:02:38;2.67;;;1.10;;
16352;SDS011;8286;51.274;9.542;2022-08-06T07:05:06;1.77;;;1.13;;
16352;SDS011;8286;51.274;9.542;2022-08-06T07:07:38;2.60;;;0.90;;
16352;SDS011;8286;51.274;9.542;2022-08-06T07:10:08;1.30;;;1.20;;
16352;SDS011;8286;51.274;9.542;2022-08-06T07:12:36;3.08;;;0.85;;
16352;SDS011;8286;51.274;9.542;2022-08-06T07:15:06;4.25;;;1.30;;
16352;SDS011;8286;51.274;9.542;2022-08-06T07:17:34;1.20;;;1.10;;
16352;SDS011;8286;51.274;9.542;2022-08-06T07:20:04;1.88;;;0.70;;
16352;SDS011;8286;51.274;9.542;2022-08-06T07:22:34;1.38;;;1.00;;
16352;SDS011;8286;51.274;9.542;2022-08-06T07:25:02;3.03;;;1.00;;
16352;SDS011;8286;51.274;9.542;2022-08-06T07:27:32;1.50;;;1.10;;
16352;SDS011;8286;51.274;9.542;2022-08-06T07:29:59;1.40;;;0.98;;
16352;SDS011;8286;51.274;9.542;2022-08-06T07:32:30;0.88;;;0.82;;
16352;SDS011;8286;51.274;9.542;2022-08-06T07:34:58;1.85;;;0.90;;
16352;SDS011;8286;51.274;9.542;2022-08-06T07:37:25;2.83;;;0.98;;
16352;SDS011;8286;51.274;9.542;2022-08-06T07:39:52;0.70;;;0.70;;
16352;SDS011;8286;51.274;9.542;2022-08-06T07:42:19;0.93;;;0.73;;
16352;SDS011;8286;51.274;9.542;2022-08-06T07:44:49;2.53;;;1.00;;
16352;SDS011;8286;51.274;9.542;2022-08-06T07:47:21;1.23;;;1.13;;
16352;SDS011;8286;51.274;9.542;2022-08-06T07:49:53;1.80;;;1.15;;
16352;SDS011;8286;51.274;9.542;2022-08-06T07:52:22;3.30;;;0.95;;
16352;SDS011;8286;51.274;9.542;2022-08-06T07:54:50;2.05;;;0.75;;
16352;SDS011;8286;51.274;9.542;2022-08-06T07:57:17;5.03;;;0.93;;
16352;SDS011;8286;51.274;9.542;2022-08-06T07:59:44;2.50;;;1.13;;
16352;SDS011;8286;51.274;9.542;2022-08-06T08:02:10;0.52;;;0.52;;
16352;SDS011;8286;51.274;9.542;2022-08-06T08:04:37;1.42;;;0.60;;
16352;SDS011;8286;51.274;9.542;2022-08-06T08:07:23;0.88;;;0.75;;
16352;SDS011;8286;51.274;9.542;2022-08-06T08:09:51;1.38;;;0.52;;
16352;SDS011;8286;51.274;9.542;2022-08-06T08:12:18;0.50;;;0.50;;
16352;SDS011;8286;51.274;9.542;2022-08-06T08:14:46;2.63;;;0.80;;
16352;SDS011;8286;51.274;9.542;2022-08-06T08:17:13;0.93;;;0.60;;
16352;SDS011;8286;51.274;9.542;2022-08-06T08:19:40;0.70;;;0.70;;
16352;SDS011;8286;51.274;9.542;2022-08-06T08:22:09;1.08;;;0.47;;
16352;SDS011;8286;51.274;9.542;2022-08-06T08:24:38;0.47;;;0.47;;
16352;SDS011;8286;51.274;9.542;2022-08-06T08:27:05;0.38;;;0.38;;
16352;SDS011;8286;51.274;9.542;2022-08-06T08:29:34;0.52;;;0.52;;
16352;SDS011;8286;51.274;9.542;2022-08-06T08:32:01;0.60;;;0.60;;
16352;SDS011;8286;51.274;9.542;2022-08-06T08:34:28;0.70;;;0.40;;
16352;SDS011;8286;51.274;9.542;2022-08-06T08:36:56;1.23;;;0.60;;
16352;SDS011;8286;51.274;9.542;2022-08-06T08:39:22;0.52;;;0.52;;
16352;SDS011;8286;51.274;9.542;2022-08-06T08:41:51;1.10;;;0.80;;
16352;SDS011;8286;51.274;9.542;2022-08-06T08:44:20;0.60;;;0.60;;
16352;SDS011;8286;51.274;9.542;2022-08-06T08:46:49;0.57;;;0.57;;
16352;SDS011;8286;51.274;9.542;2022-08-06T08:49:18;0.63;;;0.60;;
16352;SDS011;8286;51.274;9.542;2022-08-06T08:51:46;1.55;;;0.80;;
16352;SDS011;8286;51.274;9.542;2022-08-06T08:54:16;1.35;;;0.80;;
16352;SDS011;8286;51.274;9.542;2022-08-06T08:56:44;1.20;;;0.68;;
16352;SDS011;8286;51.274;9.542;2022-08-06T08:59:12;0.63;;;0.52;;
16352;SDS011;8286;51.274;9.542;2022-08-06T09:01:39;2.38;;;0.60;;
16352;SDS011;8286;51.274;9.542;2022-08-06T09:04:06;0.45;;;0.45;;
16352;SDS011;8286;51.274;9.542;2022-08-06T09:06:33;1.17;;;0.55;;
16352;SDS011;8286;51.274;9.542;2022-08-06T09:09:01;1.15;;;0.50;;
16352;SDS011;8286;51.274;9.542;2022-08-06T09:11:29;3.90;;;0.82;;
16352;SDS011;8286;51.274;9.542;2022-08-06T09:13:56;2.20;;;0.80;;
16352;SDS011;8286;51.274;9.542;2022-08-06T09:16:24;1.00;;;0.50;;
16352;SDS011;8286;51.274;9.542;2022-08-06T09:18:50;1.13;;;0.60;;
16352;SDS011;8286;51.274;9.542;2022-08-06T09:21:17;0.88;;;0.65;;
16352;SDS011;8286;51.274;9.542;2022-08-06T09:23:44;0.50;;;0.50;;
16352;SDS011;8286;51.274;9.542;2022-08-06T09:26:10;0.43;;;0.43;;
16352;SDS011;8286;51.274;9.542;2022-08-06T09:28:37;1.40;;;0.55;;
16352;SDS011;8286;51.274;9.542;2022-08-06T09:31:06;0.40;;;0.40;;
16352;SDS011;8286;51.274;9.542;2022-08-06T09:33:35;2.95;;;0.80;;
16352;SDS011;8286;51.274;9.542;2022-08-06T09:36:04;1.13;;;0.40;;
16352;SDS011;8286;51.274;9.542;2022-08-06T09:38:44;0.57;;;0.57;;
16352;SDS011;8286;51.274;9.542;2022-08-06T09:41:12;2.30;;;0.60;;
16352;SDS011;8286;51.274;9.542;2022-08-06T09:43:39;1.70;;;0.70;;
16352;SDS011;8286;51.274;9.542;2022-08-06T09:46:06;0.90;;;0.43;;
16352;SDS011;8286;51.274;9.542;2022-08-06T09:48:35;1.83;;;0.60;;
16352;SDS011;8286;51.274;9.542;2022-08-06T09:51:02;2.08;;;0.63;;
16352;SDS011;8286;51.274;9.542;2022-08-06T09:53:29;2.28;;;0.70;;
16352;SDS011;8286;51.274;9.542;2022-08-06T09:55:56;3.22;;;0.70;;
16352;SDS011;8286;51.274;9.542;2022-08-06T09:58:27;0.55;;;0.50;;
16352;SDS011;8286;51.274;9.542;2022-08-06T10:00:55;0.85;;;0.50;;
16352;SDS011;8286;51.274;9.542;2022-08-06T10:03:21;0.40;;;0.40;;
16352;SDS011;8286;51.274;9.542;2022-08-06T10:06:03;0.75;;;0.60;;
16352;SDS011;8286;51.274;9.542;2022-08-06T10:08:30;0.82;;;0.55;;
16352;SDS011;8286;51.274;9.542;2022-08-06T10:10:57;0.90;;;0.40;;
16352;SDS011;8286;51.274;9.542;2022-08-06T10:13:28;1.15;;;0.50;;
16352;SDS011;8286;51.274;9.542;2022-08-06T10:15:55;1.20;;;0.73;;
16352;SDS011;8286;51.274;9.542;2022-08-06T10:18:30;2.70;;;0.50;;
16352;SDS011;8286;51.274;9.542;2022-08-06T10:21:05;0.50;;;0.50;;
16352;SDS011;8286;51.274;9.542;2022-08-06T10:23:34;2.70;;;0.70;;
16352;SDS011;8286;51.274;9.542;2022-08-06T10:26:03;0.50;;;0.50;;
16352;SDS011;8286;51.274;9.542;2022-08-06T10:28:32;0.40;;;0.40;;
16352;SDS011;8286;51.274;9.542;2022-08-06T10:31:01;0.60;;;0.60;;
16352;SDS011;8286;51.274;9.542;2022-08-06T10:33:31;0.85;;;0.45;;
16352;SDS011;8286;51.274;9.542;2022-08-06T10:36:00;1.25;;;0.50;;
16352;SDS011;8286;51.274;9.542;2022-08-06T10:38:33;1.35;;;0.88;;
16352;SDS011;8286;51.274;9.542;2022-08-06T10:41:02;1.60;;;0.80;;
16352;SDS011;8286;51.274;9.542;2022-08-06T10:43:32;0.70;;;0.70;;
16352;SDS011;8286;51.274;9.542;2022-08-06T10:46:00;1.13;;;0.60;;
16352;SDS011;8286;51.274;9.542;2022-08-06T10:48:28;2.25;;;0.60;;
16352;SDS011;8286;51.274;9.542;2022-08-06T10:50:55;0.32;;;0.32;;
16352;SDS011;8286;51.274;9.542;2022-08-06T10:53:22;0.93;;;0.75;;
16352;SDS011;8286;51.274;9.542;2022-08-06T10:55:51;0.85;;;0.55;;
16352;SDS011;8286;51.274;9.542;2022-08-06T10:58:18;0.40;;;0.40;;
16352;SDS011;8286;51.274;9.542;2022-08-06T11:00:44;2.22;;;0.40;;
16352;SDS011;8286;51.274;9.542;2022-08-06T11:03:13;0.60;;;0.60;;
16352;SDS011;8286;51.274;9.542;2022-08-06T11:06:00;0.55;;;0.50;;
16352;SDS011;8286;51.274;9.542;2022-08-06T11:08:38;1.40;;;0.55;;
16352;SDS011;8286;51.274;9.542;2022-08-06T11:11:16;0.40;;;0.40;;
16352;SDS011;8286;51.274;9.542;2022-08-06T11:13:54;2.03;;;0.50;;
16352;SDS011;8286;51.274;9.542;2022-08-06T11:16:28;0.60;;;0.60;;
16352;SDS011;8286;51.274;9.542;2022-08-06T11:18:59;2.22;;;0.50;;
16352;SDS011;8286;51.274;9.542;2022-08-06T11:21:34;2.40;;;0.63;;
16352;SDS011;8286;51.274;9.542;2022-08-06T11:24:02;0.80;;;0.68;;
16352;SDS011;8286;51.274;9.542;2022-08-06T11:26:36;2.10;;;0.68;;
16352;SDS011;8286;51.274;9.542;2022-08-06T11:29:05;0.50;;;0.50;;
16352;SDS011;8286;51.274;9.542;2022-08-06T11:31:34;1.00;;;0.60;;
16352;SDS011;8286;51.274;9.542;2022-08-06T11:34:02;0.85;;;0.60;;
16352;SDS011;8286;51.274;9.542;2022-08-06T11:36:42;0.40;;;0.40;;
16352;SDS011;8286;51.274;9.542;2022-08-06T11:39:20;0.82;;;0.63;;
16352;SDS011;8286;51.274;9.542;2022-08-06T11:41:53;1.38;;;0.40;;
16352;SDS011;8286;51.274;9.542;2022-08-06T11:44:22;0.40;;;0.40;;
16352;SDS011;8286;51.274;9.542;2022-08-06T11:47:04;0.50;;;0.50;;
16352;SDS011;8286;51.274;9.542;2022-08-06T11:49:36;0.95;;;0.63;;
16352;SDS011;8286;51.274;9.542;2022-08-06T11:52:04;3.40;;;0.75;;
16352;SDS011;8286;51.274;9.542;2022-08-06T11:54:31;0.73;;;0.50;;
16352;SDS011;8286;51.274;9.542;2022-08-06T11:57:19;0.50;;;0.50;;
16352;SDS011;8286;51.274;9.542;2022-08-06T12:05:34;0.47;;;0.47;;
16352;SDS011;8286;51.274;9.542;2022-08-06T12:13:48;0.43;;;0.40;;
16352;SDS011;8286;51.274;9.542;2022-08-06T12:19:13;1.05;;;0.77;;
16352;SDS011;8286;51.274;9.542;2022-08-06T12:21:41;0.47;;;0.40;;
16352;SDS011;8286;51.274;9.542;2022-08-06T12:24:08;3.22;;;0.50;;
16352;SDS011;8286;51.274;9.542;2022-08-06T12:26:36;0.40;;;0.40;;
16352;SDS011;8286;51.274;9.542;2022-08-06T12:29:04;0.30;;;0.30;;
16352;SDS011;8286;51.274;9.542;2022-08-06T12:31:33;0.82;;;0.40;;
16352;SDS011;8286;51.274;9.542;2022-08-06T12:34:01;0.40;;;0.40;;
16352;SDS011;8286;51.274;9.542;2022-08-06T12:36:29;2.85;;;0.50;;
16352;SDS011;8286;51.274;9.542;2022-08-06T12:38:57;1.55;;;0.57;;
16352;SDS011;8286;51.274;9.542;2022-08-06T12:41:31;0.80;;;0.80;;
16352;SDS011;8286;51.274;9.542;2022-08-06T12:43:59;0.75;;;0.43;;
16352;SDS011;8286;51.274;9.542;2022-08-06T12:46:27;0.90;;;0.38;;
16352;SDS011;8286;51.274;9.542;2022-08-06T12:48:53;3.13;;;0.60;;
16352;SDS011;8286;51.274;9.542;2022-08-06T12:51:20;2.17;;;0.50;;
16352;SDS011;8286;51.274;9.542;2022-08-06T12:53:47;0.43;;;0.43;;
16352;SDS011;8286;51.274;9.542;2022-08-06T12:56:15;1.05;;;0.60;;
16352;SDS011;8286;51.274;9.542;2022-08-06T12:58:43;1.00;;;0.50;;
16352;SDS011;8286;51.274;9.542;2022-08-06T13:01:11;0.95;;;0.80;;
16352;SDS011;8286;51.274;9.542;2022-08-06T13:03:41;1.55;;;0.40;;
16352;SDS011;8286;51.274;9.542;2022-08-06T13:06:08;1.00;;;0.40;;
16352;SDS011;8286;51.274;9.542;2022-08-06T13:08:36;0.40;;;0.40;;
16352;SDS011;8286;51.274;9.542;2022-08-06T13:11:03;2.67;;;0.38;;
16352;SDS011;8286;51.274;9.542;2022-08-06T13:13:34;1.33;;;0.50;;
16352;SDS011;8286;51.274;9.542;2022-08-06T13:16:03;1.30;;;0.50;;
16352;SDS011;8286;51.274;9.542;2022-08-06T13:18:31;0.30;;;0.30;;
16352;SDS011;8286;51.274;9.542;2022-08-06T13:20:59;0.60;;;0.60;;
16352;SDS011;8286;51.274;9.542;2022-08-06T13:23:27;1.83;;;0.52;;
16352;SDS011;8286;51.274;9.542;2022-08-06T13:25:55;0.95;;;0.50;;
16352;SDS011;8286;51.274;9.542;2022-08-06T13:28:23;0.40;;;0.40;;
16352;SDS011;8286;51.274;9.542;2022-08-06T13:30:50;0.85;;;0.60;;
16352;SDS011;8286;51.274;9.542;2022-08-06T13:33:18;2.50;;;0.63;;
16352;SDS011;8286;51.274;9.542;2022-08-06T13:35:49;1.85;;;0.60;;
16352;SDS011;8286;51.274;9.542;2022-08-06T13:38:28;0.93;;;0.50;;
16352;SDS011;8286;51.274;9.542;2022-08-06T13:40:55;0.95;;;0.40;;
16352;SDS011;8286;51.274;9.542;2022-08-06T13:43:33;1.40;;;0.50;;
16352;SDS011;8286;51.274;9.542;2022-08-06T13:46:03;1.23;;;0.40;;
16352;SDS011;8286;51.274;9.542;2022-08-06T13:48:30;0.98;;;0.70;;
16352;SDS011;8286;51.274;9.542;2022-08-06T13:50:57;2.25;;;0.45;;
16352;SDS011;8286;51.274;9.542;2022-08-06T13:53:24;0.30;;;0.30;;
16352;SDS011;8286;51.274;9.542;2022-08-06T13:55:52;0.30;;;0.30;;
16352;SDS011;8286;51.274;9.542;2022-08-06T13:58:18;0.85;;;0.47;;
16352;SDS011;8286;51.274;9.542;2022-08-06T14:00:45;0.50;;;0.50;;
16352;SDS011;8286;51.274;9.542;2022-08-06T14:03:12;0.40;;;0.40;;
16352;SDS011;8286;51.274;9.542;2022-08-06T14:05:39;0.20;;;0.20;;
16352;SDS011;8286;51.274;9.542;2022-08-06T14:08:05;1.85;;;0.60;;
16352;SDS011;8286;51.274;9.542;2022-08-06T14:10:32;1.17;;;0.50;;
16352;SDS011;8286;51.274;9.542;2022-08-06T14:13:00;1.17;;;0.40;;
16352;SDS011;8286;51.274;9.542;2022-08-06T14:15:42;0.60;;;0.40;;
16352;SDS011;8286;51.274;9.542;2022-08-06T14:18:09;4.90;;;0.45;;
16352;SDS011;8286;51.274;9.542;2022-08-06T14:20:36;3.17;;;0.65;;
16352;SDS011;8286;51.274;9.542;2022-08-06T14:23:03;0.40;;;0.40;;
16352;SDS011;8286;51.274;9.542;2022-08-06T14:25:30;0.60;;;0.57;;
16352;SDS011;8286;51.274;9.542;2022-08-06T14:27:56;1.55;;;0.50;;
16352;SDS011;8286;51.274;9.542;2022-08-06T14:30:25;1.60;;;0.32;;
16352;SDS011;8286;51.274;9.542;2022-08-06T14:32:53;0.50;;;0.50;;
16352;SDS011;8286;51.274;9.542;2022-08-06T14:35:19;0.85;;;0.50;;
16352;SDS011;8286;51.274;9.542;2022-08-06T14:37:46;0.47;;;0.47;;
16352;SDS011;8286;51.274;9.542;2022-08-06T14:40:13;0.50;;;0.50;;
16352;SDS011;8286;51.274;9.542;2022-08-06T14:42:40;0.60;;;0.60;;
16352;SDS011;8286;51.274;9.542;2022-08-06T14:45:26;0.35;;;0.35;;
16352;SDS011;8286;51.274;9.542;2022-08-06T14:47:52;0.73;;;0.55;;
16352;SDS011;8286;51.274;9.542;2022-08-06T14:50:19;1.00;;;0.30;;
16352;SDS011;8286;51.274;9.542;2022-08-06T14:52:46;0.38;;;0.38;;
16352;SDS011;8286;51.274;9.542;2022-08-06T14:55:12;1.10;;;0.50;;
16352;SDS011;8286;51.274;9.542;2022-08-06T14:57:39;0.47;;;0.47;;
16352;SDS011;8286;51.274;9.542;2022-08-06T15:00:07;1.05;;;0.50;;
16352;SDS011;8286;51.274;9.542;2022-08-06T15:02:36;0.43;;;0.43;;
16352;SDS011;8286;51.274;9.542;2022-08-06T15:05:03;0.43;;;0.32;;
16352;SDS011;8286;51.274;9.542;2022-08-06T15:07:30;1.60;;;0.60;;
16352;SDS011;8286;51.274;9.542;2022-08-06T15:09:57;1.40;;;0.68;;
16352;SDS011;8286;51.274;9.542;2022-08-06T15:12:23;1.08;;;0.60;;
16352;SDS011;8286;51.274;9.542;2022-08-06T15:14:50;0.30;;;0.30;;
16352;SDS011;8286;51.274;9.542;2022-08-06T15:17:17;0.82;;;0.57;;
16352;SDS011;8286;51.274;9.542;2022-08-06T15:19:45;0.80;;;0.45;;
16352;SDS011;8286;51.274;9.542;2022-08-06T15:22:11;0.70;;;0.50;;
16352;SDS011;8286;51.274;9.542;2022-08-06T15:24:38;0.50;;;0.50;;
16352;SDS011;8286;51.274;9.542;2022-08-06T15:27:08;1.08;;;0.68;;